Upstream stations:
Downstream station:
SHEF ID: MRIT2 Lake Meredith
STATION TYPE: RESERVOIR
Flood Pool: Bottom = 2941.30, Top = 2965.00
ELEVATION STORAGE INFLOW RELEASE WIND-DIRWIND-SPEED
ft ac-ft cfs cfs deg mph
Ccp-Rev Ccp-Rev Rev-Regi Rev-Regi Ccp-Rev Ccp-Rev
(US/Central)
05/16 00:00 2883.57 204212 0 0 81.00 5.00
05/16 01:00 2883.58 204280 0 0 92.00 10.00
05/16 02:00 2883.55 204077 0 0 98.00 9.00
05/16 03:00 2883.54 204010 0 0 95.00 6.00
05/16 04:00 2883.51 203807 0 0 80.00 5.00
05/16 05:00 2883.55 204077 0 0 96.00 3.00
05/16 06:00 2883.53 203942 0 0 114.00 4.00
05/16 07:00 2883.53 203942 0 0 232.00 2.00
05/16 08:00 2883.54 204010 0 0 276.00 1.00
05/16 09:00 2883.49 203673 0 0 ---- ----
05/16 10:00 2883.47 203539 0 0 ---- ----
05/16 11:00 2883.52 203875 0 0 ---- ----
05/16 12:00 2883.54 204010 0 0 ---- ----
05/16 13:00 2883.53 203942 0 0 ---- ----
05/16 14:00 2883.52 203875 0 0 ---- ----
05/16 15:00 2883.56 204145 0 0 ---- ----
05/16 16:00 2883.54 204010 0 0 ---- ----
05/16 17:00 2883.57 204212 0 0 ---- ----
05/16 18:00 2883.57 204212 0 0 ---- ----
05/16 19:00 2883.56 204145 0 0 ---- ----
05/16 20:00 2883.56 204145 0 0 ---- ----
05/16 21:00 2883.57 204212 1141 0 ---- ----
05/16 22:00 2883.56 204145 1141 0 ---- ----
05/16 23:00 2883.64 204684 3424 0 ---- ----